Aérodrome :
LOGIN :

S'inscrire | Disclaimer

   EN    FR    IT 

 










Légende :    VFR   VFR Marginal   IFR   IFR Intensif   IFR Très Intensif
Visi : 
Plafond : 
>= 8 km
>= 3000ft
5 à 8 km
1000 à 3000 ft
1500m à 5 km
500 à 1000 ft
800 à 1500m
200 à 500 ft
< 800m
< 200 ft
Symboles :   Orages  Brouillard  Fortes neiges  Fortes précipitations  Vent > 20 kt
SIGMETs :   Divers  Orages  Givrage  Turbulence  Onde Orograph.  Cendres Volcan.







- Altitude de l'aérodrome : 124 ft
- Code IATA : AVN
- Voir les cartes d'approche


LFMV - Avignon Caumont

DERNIER METAR :
  • 192000Z AUTO 16007KT CAVOK 20/11 Q1014 NOSIG

METARs EXPIRÉS :
  • 191930Z AUTO 17006KT CAVOK 20/11 Q1014 NOSIG
  • 191900Z AUTO VRB02KT CAVOK 20/11 Q1013 NOSIG
  • 191830Z AUTO VRB02KT CAVOK 21/10 Q1013 NOSIG
  • 191800Z AUTO 19004KT CAVOK 21/11 Q1013 NOSIG
  • 191730Z AUTO 15003KT 110V170 CAVOK 21/10 Q1012 NOSIG

TAF TAF LFMV
Valide du 19 à 15h jusqu'au 20 à 15h UTC


191400Z 1915/2015 14015KT CAVOK
BECMG 1915/1918 14010KT BKN040
BECMG 1918/1921 VRB05KT
TEMPO 2012/2015 24007KT
ATIS : +33 4 90 84 32 84
Pas de NOTAMs connus pour ce terrain.
1 SIGMET publié pour la FIR Marseille (LFMM) :
 
Orages noyés dans la masse
LFMM SIGMET 14 VALID 191900/192100 LFPW
LFMM MARSEILLE FIR/UIR EMBD TS OBS WI N3900 E00700 - N3900 E00430 - N4200 E00430 - N4215 E00230 - N4345 E00245 - N4345 E00300 - N4115 E00600 TOP FL370 STNR NC=



MET'MAP, la Météo Aéronautique d'un coup d'oeil ! - Copyright ORBIFLY Décembre 2007 - Disclaimer

ORBIFLY MET'MAP TEAM :

Programmation & Développement : Alexandra Zaïnal
Conception & Développement : Baudouin d'Aumeries
Co-Programmation & Développement : Marc-Olivier Méhu
Soutien technique & logistique : Manuel Goepfert

Contact : metmap@orbifly.com




SOURCES & CREDITS :

   NOAA